Time;durP1;ratioP1;P1;durP2;ratioP2;P2;SDS_P1;SDS_P2;PMS_P1;PMS_P2;Temp;Humidity;BMP_temperature;BMP_pressure;BME280_temperature;BME280_humidity;BME280_pressure;Samples;Min_cycle;Max_cycle;Signal;HPM_P1;HPM_P2
2022/04/09 00:01:41;;;;;;;;;;;;;;;1.54;100.00;97100.72;4996899;28;102756;-70
2022/04/09 00:04:09;;;;;;;;;;;;;;;1.50;100.00;97115.69;4994870;28;103751;-70
2022/04/09 00:06:36;;;;;;;;;;;;;;;1.75;100.00;97131.47;5014229;28;103194;-70
2022/04/09 00:09:06;;;;;;;;;;;;;;;1.79;100.00;97142.53;5014580;28;102610;-70
2022/04/09 00:11:34;;;;;;;;;;;;;;;1.86;100.00;97156.00;5013677;28;103981;-70
2022/04/09 00:14:02;;;;;;;;;;;;;;;1.88;100.00;97172.38;5014618;28;103187;-70
2022/04/09 00:16:31;;;;;;;;;;;;;;;1.90;100.00;97173.13;5019644;28;103302;-70
2022/04/09 00:18:59;;;;;;;;;;;;;;;1.79;100.00;97193.78;5012574;28;103011;-70
2022/04/09 00:21:29;;;;;;;;;;;;;;;1.82;100.00;97217.88;5011521;28;103017;-70
2022/04/09 00:23:57;;;;;;;;;;;;;;;1.96;100.00;97243.91;5001340;28;104169;-70
2022/04/09 00:26:25;;;;;;;;;;;;;;;1.98;100.00;97257.66;5006192;28;103124;-70
2022/04/09 00:28:53;;;;;;;;;;;;;;;2.03;100.00;97276.47;5016323;28;102633;-70
2022/04/09 00:31:20;;;;;;;;;;;;;;;2.13;100.00;97277.56;4993587;28;104262;-70
2022/04/09 00:33:50;;;;;;;;;;;;;;;2.06;100.00;97288.47;5011371;28;103381;-70
2022/04/09 00:36:18;;;;;;;;;;;;;;;1.98;100.00;97283.72;4995307;28;103382;-71
2022/04/09 00:38:46;;;;;;;;;;;;;;;1.95;100.00;97290.88;5004105;28;102617;-70
2022/04/09 00:41:13;;;;;;;;;;;;;;;1.93;100.00;97295.34;5002318;28;104015;-71
2022/04/09 00:43:42;;;;;;;;;;;;;;;1.99;100.00;97301.03;5008586;28;103709;-70
2022/04/09 00:46:12;;;;;;;;;;;;;;;2.02;100.00;97295.63;4999224;28;103190;-70
2022/04/09 00:48:40;;;;;;;;;;;;;;;2.13;100.00;97305.41;5010595;28;103138;-70
2022/04/09 00:51:09;;;;;;;;;;;;;;;1.90;100.00;97321.56;5009118;28;104104;-71
2022/04/09 00:53:41;;;;;;;;;;;;;;;1.97;100.00;97326.31;5017598;28;103345;-71
2022/04/09 00:56:17;;;;;;;;;;;;;;;1.95;100.00;97335.16;5002339;28;103147;-70
2022/04/09 00:58:47;;;;;;;;;;;;;;;1.97;100.00;97333.28;5012491;28;103238;-70
2022/04/09 01:01:15;;;;;;;;;;;;;;;1.86;100.00;97353.91;4988173;28;102777;-69
2022/04/09 01:03:43;;;;;;;;;;;;;;;1.93;100.00;97368.28;4998684;28;104126;-69
2022/04/09 01:06:12;;;;;;;;;;;;;;;1.94;100.00;97369.97;5014240;28;103274;-69
2022/04/09 01:08:40;;;;;;;;;;;;;;;2.07;100.00;97382.16;5016859;28;102560;-70
2022/04/09 01:11:08;;;;;;;;;;;;;;;2.16;100.00;97392.03;5017424;28;105131;-70
2022/04/09 01:13:40;;;;;;;;;;;;;;;2.04;100.00;97412.75;5026093;28;103496;-71
2022/04/09 01:16:08;;;;;;;;;;;;;;;1.95;100.00;97419.34;4997589;28;104250;-71
2022/04/09 01:18:36;;;;;;;;;;;;;;;1.97;100.00;97440.06;5016980;28;103075;-70
2022/04/09 01:21:08;;;;;;;;;;;;;;;2.06;100.00;97437.78;5003128;28;102721;-70
2022/04/09 01:23:37;;;;;;;;;;;;;;;2.06;100.00;97436.94;5002213;28;105259;-70
2022/04/09 01:26:06;;;;;;;;;;;;;;;2.00;100.00;97450.31;4998055;28;105032;-71
2022/04/09 01:28:38;;;;;;;;;;;;;;;1.92;100.00;97452.53;5001185;28;102899;-71
2022/04/09 01:31:07;;;;;;;;;;;;;;;2.15;100.00;97458.09;5020367;28;103696;-70
2022/04/09 01:33:35;;;;;;;;;;;;;;;2.10;100.00;97475.78;4993099;28;104137;-71
2022/04/09 01:36:05;;;;;;;;;;;;;;;2.08;100.00;97481.97;5012972;28;103161;-70
2022/04/09 01:38:34;;;;;;;;;;;;;;;2.21;100.00;97488.19;5000980;28;102643;-70
2022/04/09 01:41:05;;;;;;;;;;;;;;;2.22;100.00;97500.25;5022202;28;103648;-70
2022/04/09 01:43:50;;;;;;;;;;;;;;;2.19;100.00;97505.69;4998797;28;104148;-70
2022/04/09 01:46:18;;;;;;;;;;;;;;;2.20;100.00;97518.59;5004404;28;105204;-70
2022/04/09 01:48:46;;;;;;;;;;;;;;;2.25;100.00;97524.38;5002258;28;102617;-70
2022/04/09 01:51:14;;;;;;;;;;;;;;;2.26;100.00;97528.69;5014279;28;103886;-70
2022/04/09 01:53:42;;;;;;;;;;;;;;;2.22;100.00;97532.38;4999248;28;104656;-71
2022/04/09 01:56:11;;;;;;;;;;;;;;;2.33;100.00;97544.78;5011772;28;103217;-70
2022/04/09 01:58:42;;;;;;;;;;;;;;;2.15;100.00;97551.06;4996115;28;102606;-70
2022/04/09 02:01:16;;;;;;;;;;;;;;;2.24;100.00;97555.75;4993081;28;103616;-70
2022/04/09 02:03:44;;;;;;;;;;;;;;;2.23;100.00;97560.13;5020841;28;104008;-70
2022/04/09 02:06:12;;;;;;;;;;;;;;;2.34;100.00;97569.94;5012248;28;103154;-70
2022/04/09 02:08:41;;;;;;;;;;;;;;;2.32;100.00;97579.63;5000151;28;102797;-70
2022/04/09 02:11:09;;;;;;;;;;;;;;;2.30;100.00;97581.47;5000221;28;104364;-70
2022/04/09 02:13:38;;;;;;;;;;;;;;;2.41;100.00;97573.88;5001303;28;104319;-70
2022/04/09 02:16:06;;;;;;;;;;;;;;;2.44;100.00;97584.16;4999867;28;104079;-70
2022/04/09 02:18:36;;;;;;;;;;;;;;;2.47;100.00;97588.34;5003706;28;103166;-69
2022/04/09 02:21:05;;;;;;;;;;;;;;;2.44;100.00;97599.78;4998802;28;103828;-70
2022/04/09 02:23:32;;;;;;;;;;;;;;;2.48;100.00;97610.84;5012965;28;103329;-70
2022/04/09 02:26:00;;;;;;;;;;;;;;;2.52;100.00;97618.44;4996074;28;104143;-70
2022/04/09 02:28:28;;;;;;;;;;;;;;;2.28;100.00;97638.03;4998919;28;102664;-70
2022/04/09 02:30:58;;;;;;;;;;;;;;;2.34;100.00;97645.53;5000495;28;103223;-70
2022/04/09 02:33:32;;;;;;;;;;;;;;;2.32;100.00;97652.59;5002609;28;103961;-70
2022/04/09 02:36:00;;;;;;;;;;;;;;;2.37;100.00;97655.78;4997775;28;103836;-70
2022/04/09 02:38:28;;;;;;;;;;;;;;;2.45;100.00;97664.00;5021221;28;102682;-71
2022/04/09 02:40:56;;;;;;;;;;;;;;;2.26;100.00;97676.41;4996227;28;103630;-70
2022/04/09 02:43:24;;;;;;;;;;;;;;;2.39;100.00;97673.97;4994908;28;103997;-70
2022/04/09 02:45:52;;;;;;;;;;;;;;;2.41;100.00;97687.75;4994218;28;104973;-70
2022/04/09 02:48:21;;;;;;;;;;;;;;;2.20;100.00;97694.97;5000614;28;102999;-70
2022/04/09 02:50:49;;;;;;;;;;;;;;;2.15;100.00;97707.41;5002455;28;102704;-71
2022/04/09 02:53:19;;;;;;;;;;;;;;;2.13;100.00;97714.47;4997851;28;105006;-70
2022/04/09 02:55:47;;;;;;;;;;;;;;;2.29;100.00;97718.78;4994272;28;104283;-70
2022/04/09 02:58:16;;;;;;;;;;;;;;;2.29;100.00;97729.19;5021611;28;102715;-70
2022/04/09 03:00:46;;;;;;;;;;;;;;;2.28;100.00;97731.88;5000858;28;102775;-70
2022/04/09 03:03:17;;;;;;;;;;;;;;;2.40;100.00;97746.84;4997283;28;105950;-70
2022/04/09 03:05:50;;;;;;;;;;;;;;;2.50;100.00;97745.41;4993518;28;104041;-70
2022/04/09 03:08:18;;;;;;;;;;;;;;;2.42;100.00;97759.78;5015551;28;102663;-71
2022/04/09 03:10:47;;;;;;;;;;;;;;;2.45;100.00;97770.06;5021001;28;104052;-71
2022/04/09 03:13:14;;;;;;;;;;;;;;;2.48;100.00;97765.53;5007425;28;103182;-70
2022/04/09 03:15:44;;;;;;;;;;;;;;;2.54;100.00;97777.38;5017384;28;103171;-71
2022/04/09 03:18:16;;;;;;;;;;;;;;;2.62;100.00;97781.25;4994203;28;102631;-70
2022/04/09 03:20:44;;;;;;;;;;;;;;;2.52;100.00;97782.69;5000346;28;103754;-70
2022/04/09 03:23:16;;;;;;;;;;;;;;;2.60;100.00;97797.91;4998666;28;103248;-71
2022/04/09 03:25:57;;;;;;;;;;;;;;;2.57;100.00;97792.88;5000908;28;104280;-71
2022/04/09 03:28:33;;;;;;;;;;;;;;;2.62;100.00;97801.28;4999922;28;102856;-72
2022/04/09 03:31:02;;;;;;;;;;;;;;;2.61;100.00;97803.03;5020769;27;103904;-72
2022/04/09 03:33:32;;;;;;;;;;;;;;;2.70;100.00;97818.19;4999451;28;104346;-72
2022/04/09 03:36:06;;;;;;;;;;;;;;;2.74;100.00;97816.25;5013588;28;103182;-72
2022/04/09 03:38:36;;;;;;;;;;;;;;;2.64;100.00;97825.53;4996127;28;102768;-72
2022/04/09 03:41:03;;;;;;;;;;;;;;;2.74;100.00;97827.53;5008531;28;104068;-71
2022/04/09 03:43:44;;;;;;;;;;;;;;;2.72;100.00;97833.78;4997722;28;103782;-72
2022/04/09 03:46:15;;;;;;;;;;;;;;;2.68;100.00;97834.84;4999897;28;104134;-71
2022/04/09 03:48:44;;;;;;;;;;;;;;;2.69;100.00;97844.38;4999844;28;103661;-72
2022/04/09 03:51:14;;;;;;;;;;;;;;;2.82;100.00;97847.97;5014627;28;104170;-70
2022/04/09 03:53:45;;;;;;;;;;;;;;;2.73;100.00;97856.28;4993761;28;103221;-70
2022/04/09 03:56:14;;;;;;;;;;;;;;;2.67;100.00;97860.06;5015986;28;103134;-71
2022/04/09 03:58:45;;;;;;;;;;;;;;;2.75;100.00;97876.16;4994511;28;102621;-71
2022/04/09 04:01:14;;;;;;;;;;;;;;;2.83;100.00;97879.22;4994542;28;103034;-71
2022/04/09 04:03:47;;;;;;;;;;;;;;;2.68;100.00;97885.25;4995458;28;105773;-72
2022/04/09 04:06:14;;;;;;;;;;;;;;;2.72;100.00;97897.19;4993481;28;104069;-72
2022/04/09 04:08:42;;;;;;;;;;;;;;;2.79;100.00;97888.13;4992274;28;103751;-72
2022/04/09 04:11:16;;;;;;;;;;;;;;;2.73;100.00;97901.47;5018015;28;103837;-71
2022/04/09 04:13:44;;;;;;;;;;;;;;;2.72;100.00;97902.41;4999276;28;105014;-72
2022/04/09 04:16:13;;;;;;;;;;;;;;;2.78;100.00;97898.63;4996118;27;102825;-72
2022/04/09 04:18:44;;;;;;;;;;;;;;;2.73;100.00;97904.09;5004549;28;102700;-72
2022/04/09 04:21:13;;;;;;;;;;;;;;;2.78;100.00;97914.28;5021721;28;102927;-72
2022/04/09 04:23:45;;;;;;;;;;;;;;;2.79;100.00;97924.63;4996270;28;104176;-72
2022/04/09 04:26:20;;;;;;;;;;;;;;;2.65;100.00;97921.91;5020354;28;103108;-72
2022/04/09 04:28:57;;;;;;;;;;;;;;;2.67;100.00;97922.66;4995169;28;102767;-72
2022/04/09 04:31:28;;;;;;;;;;;;;;;2.69;100.00;97943.47;5001566;28;102688;-71
2022/04/09 04:33:56;;;;;;;;;;;;;;;2.63;100.00;97944.63;4997456;28;104150;-71
2022/04/09 04:36:25;;;;;;;;;;;;;;;2.67;100.00;97940.06;4992774;28;105022;-71
2022/04/09 04:38:53;;;;;;;;;;;;;;;2.67;100.00;97950.50;4997688;28;102977;-71
2022/04/09 04:41:24;;;;;;;;;;;;;;;2.66;100.00;97951.47;4996471;28;102875;-71
2022/04/09 04:43:54;;;;;;;;;;;;;;;2.67;100.00;97953.97;4998180;28;104941;-71
2022/04/09 04:46:27;;;;;;;;;;;;;;;2.65;100.00;97966.25;4993398;28;104285;-71
2022/04/09 04:48:55;;;;;;;;;;;;;;;2.61;100.00;97967.31;5021059;28;102723;-70
2022/04/09 04:51:25;;;;;;;;;;;;;;;2.50;100.00;97985.28;4994472;28;103887;-71
2022/04/09 04:53:54;;;;;;;;;;;;;;;2.61;100.00;97980.38;5000425;28;104108;-70
2022/04/09 04:56:24;;;;;;;;;;;;;;;2.68;100.00;97979.13;5002493;28;104908;-70
2022/04/09 04:58:56;;;;;;;;;;;;;;;2.58;100.00;97993.59;4995049;28;102797;-70
2022/04/09 05:01:24;;;;;;;;;;;;;;;2.59;100.00;97989.19;5018909;28;102830;-71
2022/04/09 05:03:58;;;;;;;;;;;;;;;2.70;100.00;97992.09;4999953;28;104125;-70
2022/04/09 05:06:30;;;;;;;;;;;;;;;2.66;100.00;98007.06;5001569;28;104413;-71
2022/04/09 05:08:59;;;;;;;;;;;;;;;2.68;100.00;98013.03;5021113;28;103028;-70
2022/04/09 05:11:40;;;;;;;;;;;;;;;2.67;100.00;98019.19;5021506;28;102647;-68
2022/04/09 05:14:13;;;;;;;;;;;;;;;2.72;100.00;98030.22;5002204;28;105515;-67
2022/04/09 05:16:48;;;;;;;;;;;;;;;2.64;100.00;98029.75;5007216;28;103317;-67
2022/04/09 05:19:16;;;;;;;;;;;;;;;2.69;100.00;98027.78;5017442;28;102726;-69
2022/04/09 05:21:50;;;;;;;;;;;;;;;2.73;100.00;98042.34;5002929;28;102984;-69
2022/04/09 05:24:21;;;;;;;;;;;;;;;2.61;100.00;98044.75;4996805;28;104460;-69
2022/04/09 05:26:50;;;;;;;;;;;;;;;2.69;100.00;98047.81;5013672;28;102944;-70
2022/04/09 05:29:21;;;;;;;;;;;;;;;2.65;100.00;98057.53;5000740;28;102896;-69
2022/04/09 05:31:50;;;;;;;;;;;;;;;2.77;100.00;98061.28;5019739;28;103941;-70
2022/04/09 05:34:19;;;;;;;;;;;;;;;2.84;100.00;98068.72;4992219;28;104133;-70
2022/04/09 05:36:47;;;;;;;;;;;;;;;2.95;100.00;98070.78;5001014;28;105239;-69
2022/04/09 05:39:16;;;;;;;;;;;;;;;2.93;100.00;98078.69;5000177;28;103119;-68
2022/04/09 05:41:45;;;;;;;;;;;;;;;2.99;100.00;98076.69;4998599;28;102792;-69
2022/04/09 05:44:15;;;;;;;;;;;;;;;3.09;100.00;98083.94;4996087;28;104201;-69
2022/04/09 05:46:43;;;;;;;;;;;;;;;3.01;100.00;98082.66;5001251;28;104261;-69
2022/04/09 05:49:14;;;;;;;;;;;;;;;2.98;100.00;98090.63;4998311;28;102718;-68
2022/04/09 05:51:44;;;;;;;;;;;;;;;2.98;100.00;98090.63;4999052;28;103703;-69
2022/04/09 05:54:14;;;;;;;;;;;;;;;2.90;100.00;98104.94;5005184;28;105117;-67
2022/04/09 05:56:44;;;;;;;;;;;;;;;3.01;100.00;98103.53;5010111;28;103902;-68
2022/04/09 05:59:44;;;;;;;;;;;;;;;3.11;100.00;98108.22;5001649;28;102667;-68
2022/04/09 06:02:14;;;;;;;;;;;;;;;3.34;100.00;98115.69;5008514;28;102828;-68
2022/04/09 06:04:42;;;;;;;;;;;;;;;3.28;100.00;98128.22;5017831;28;103791;-68
2022/04/09 06:07:13;;;;;;;;;;;;;;;3.48;100.00;98128.03;5004031;28;103192;-68
2022/04/09 06:09:53;;;;;;;;;;;;;;;3.49;99.19;98135.78;4999818;28;102868;-68
2022/04/09 06:12:21;;;;;;;;;;;;;;;3.47;99.87;98139.41;5004123;28;102967;-68
2022/04/09 06:14:58;;;;;;;;;;;;;;;3.39;98.38;98144.19;5001128;28;104072;-69
2022/04/09 06:17:36;;;;;;;;;;;;;;;3.59;97.77;98149.22;5002692;28;105194;-68
2022/04/09 06:20:05;;;;;;;;;;;;;;;3.41;97.28;98152.78;5025273;28;102579;-69
2022/04/09 06:22:38;;;;;;;;;;;;;;;3.38;97.66;98163.38;5003133;28;102803;-69
2022/04/09 06:25:08;;;;;;;;;;;;;;;3.36;97.78;98166.06;5019245;28;104148;-69
2022/04/09 06:27:39;;;;;;;;;;;;;;;3.50;96.70;98173.19;5020573;27;103316;-69
2022/04/09 06:30:09;;;;;;;;;;;;;;;3.64;97.02;98175.94;4999445;28;103112;-67
2022/04/09 06:32:40;;;;;;;;;;;;;;;3.81;96.08;98178.50;4999953;28;102842;-67
2022/04/09 06:35:10;;;;;;;;;;;;;;;3.86;95.50;98186.94;5002000;28;103984;-67
2022/04/09 06:37:38;;;;;;;;;;;;;;;3.98;96.05;98191.50;5018000;28;103262;-69
2022/04/09 06:40:07;;;;;;;;;;;;;;;4.18;94.12;98202.66;5020389;28;102738;-68
2022/04/09 06:42:35;;;;;;;;;;;;;;;4.07;94.57;98200.59;4999165;28;104256;-69
2022/04/09 06:45:26;;;;;;;;;;;;;;;4.16;94.11;98205.31;4977916;28;104101;-61
2022/04/09 06:48:32;;;;;;;;;;;;;;;4.18;93.71;98213.97;4996812;28;103862;-66
2022/04/09 06:51:18;;;;;;;;;;;;;;;4.21;94.11;98212.94;5011544;28;102602;-67
2022/04/09 06:53:47;;;;;;;;;;;;;;;4.26;92.65;98221.38;4996326;28;104057;-67
2022/04/09 06:56:15;;;;;;;;;;;;;;;4.42;91.14;98222.22;4996109;28;103635;-67
2022/04/09 06:58:42;;;;;;;;;;;;;;;4.41;91.33;98220.53;5012396;28;103256;-67
2022/04/09 07:01:11;;;;;;;;;;;;;;;4.48;90.54;98221.88;5013800;28;103129;-67
2022/04/09 07:03:43;;;;;;;;;;;;;;;4.53;90.32;98227.69;4996274;27;103803;-67
2022/04/09 07:06:11;;;;;;;;;;;;;;;4.62;91.57;98228.03;4994361;28;103997;-67
2022/04/09 07:08:41;;;;;;;;;;;;;;;4.68;90.16;98229.47;4998484;28;104510;-67
2022/04/09 07:11:09;;;;;;;;;;;;;;;4.98;91.78;98235.59;5012295;28;102606;-69
2022/04/09 07:13:37;;;;;;;;;;;;;;;4.72;90.04;98246.69;5013856;28;103914;-70
2022/04/09 07:16:05;;;;;;;;;;;;;;;5.13;91.84;98247.81;5013010;28;103209;-70
2022/04/09 07:18:36;;;;;;;;;;;;;;;4.81;89.07;98256.63;5014372;28;103123;-70
2022/04/09 07:21:05;;;;;;;;;;;;;;;5.08;88.63;98260.31;5010835;28;103048;-70
2022/04/09 07:23:33;;;;;;;;;;;;;;;5.07;88.65;98273.50;5011162;28;102758;-70
2022/04/09 07:26:02;;;;;;;;;;;;;;;5.28;88.51;98262.63;5012498;28;104152;-70
2022/04/09 07:28:30;;;;;;;;;;;;;;;5.08;89.39;98278.63;5011118;28;105138;-70
2022/04/09 07:30:58;;;;;;;;;;;;;;;5.26;86.38;98282.00;4996196;27;102681;-70
2022/04/09 07:33:26;;;;;;;;;;;;;;;5.36;85.63;98284.94;4995303;28;103895;-70
2022/04/09 07:35:56;;;;;;;;;;;;;;;5.68;85.70;98292.59;4997516;28;104178;-70
2022/04/09 07:38:25;;;;;;;;;;;;;;;5.93;86.49;98297.25;5007421;28;104231;-70
2022/04/09 07:40:55;;;;;;;;;;;;;;;5.87;85.32;98291.56;5004868;28;102671;-67
2022/04/09 07:43:23;;;;;;;;;;;;;;;6.13;84.06;98304.78;5012806;28;104125;-67
2022/04/09 07:45:52;;;;;;;;;;;;;;;5.90;85.66;98307.06;5008517;28;103438;-70
2022/04/09 07:48:20;;;;;;;;;;;;;;;5.89;85.59;98301.00;5011999;28;103295;-69
2022/04/09 07:50:51;;;;;;;;;;;;;;;5.98;87.20;98310.09;4995396;28;103326;-69
2022/04/09 07:53:19;;;;;;;;;;;;;;;5.83;85.76;98322.31;4993495;28;103692;-69
2022/04/09 07:55:48;;;;;;;;;;;;;;;5.80;85.59;98327.72;5011780;28;104045;-65
2022/04/09 07:58:16;;;;;;;;;;;;;;;5.93;84.28;98322.63;5007736;28;103147;-62
2022/04/09 08:00:45;;;;;;;;;;;;;;;5.82;84.73;98331.94;5009570;28;102920;-66
2022/04/09 08:03:14;;;;;;;6.47;4.10;;;;;;;5.96;84.79;98323.28;5007977;28;104100;-70
2022/04/09 08:05:43;;;;;;;7.35;5.28;;;;;;;6.16;83.25;98335.22;5005643;28;103382;-67
2022/04/09 08:08:11;;;;;;;7.90;5.07;;;;;;;6.43;82.18;98333.53;4991180;28;103024;-65
2022/04/09 08:10:39;;;;;;;6.78;4.78;;;;;;;6.63;80.79;98340.19;4991993;28;102687;-65
2022/04/09 08:13:09;;;;;;;6.38;4.60;;;;;;;6.53;78.39;98339.06;4994464;28;102775;-71
2022/04/09 08:15:38;;;;;;;5.47;4.22;;;;;;;6.76;81.15;98341.97;5006377;28;104130;-65
2022/04/09 08:18:07;;;;;;;6.88;4.05;;;;;;;6.96;80.27;98352.03;4989418;28;104092;-65
2022/04/09 08:20:57;;;;;;;8.30;4.40;;;;;;;6.74;79.20;98353.47;5008475;28;102885;-65
2022/04/09 08:23:27;;;;;;;7.40;4.55;;;;;;;6.60;79.31;98358.75;4981093;28;104611;-66
2022/04/09 08:25:56;;;;;;;8.05;4.80;;;;;;;6.43;79.18;98360.63;5005423;28;103821;-71
2022/04/09 08:28:26;;;;;;;6.65;4.15;;;;;;;6.73;77.95;98347.41;5003727;28;103253;-70
2022/04/09 08:30:54;;;;;;;7.15;4.50;;;;;;;6.55;79.22;98363.44;4987719;28;102705;-70
2022/04/09 08:33:23;;;;;;;6.90;4.57;;;;;;;6.52;77.72;98363.63;4990127;28;104492;-70
2022/04/09 08:35:50;;;;;;;7.47;4.77;;;;;;;6.12;79.44;98371.25;5006252;28;104031;-70
2022/04/09 08:38:18;;;;;;;7.30;5.00;;;;;;;6.33;79.07;98362.13;4986829;28;103202;-64
2022/04/09 08:40:47;;;;;;;8.70;4.95;;;;;;;6.96;80.85;98374.84;4983107;28;103853;-70
2022/04/09 08:43:15;;;;;;;7.75;4.90;;;;;;;6.88;79.23;98366.59;5004753;28;102867;-64
2022/04/09 08:45:44;;;;;;;9.10;5.57;;;;;;;6.50;78.97;98373.38;4998182;28;103392;-70
2022/04/09 08:48:12;;;;;;;7.20;4.67;;;;;;;6.34;79.03;98374.28;4988815;28;103190;-70
2022/04/09 08:50:44;;;;;;;6.90;4.17;;;;;;;7.72;74.38;98369.94;5004286;28;102625;-64
2022/04/09 08:53:12;;;;;;;8.20;4.97;;;;;;;7.41;77.12;98371.09;5009875;28;103945;-64
2022/04/09 08:55:41;;;;;;;8.87;5.20;;;;;;;7.16;78.28;98366.53;4984480;28;104104;-64
2022/04/09 08:58:09;;;;;;;11.07;5.60;;;;;;;6.75;78.45;98376.19;5002847;28;103364;-64
2022/04/09 09:00:37;;;;;;;6.50;4.40;;;;;;;7.11;78.23;98373.88;5002002;28;103081;-64
2022/04/09 09:03:10;;;;;;;7.50;5.60;;;;;;;7.06;80.17;98381.22;5004585;28;103070;-64
2022/04/09 09:05:41;;;;;;;6.70;4.40;;;;;;;7.49;79.47;98380.13;5006780;28;104256;-64
2022/04/09 09:08:11;;;;;;;6.17;4.10;;;;;;;7.73;78.06;98376.84;4987878;28;103368;-64
2022/04/09 09:10:42;;;;;;;8.00;3.93;;;;;;;7.70;75.78;98388.41;5004781;28;102732;-64
2022/04/09 09:13:12;;;;;;;6.37;4.10;;;;;;;8.00;76.34;98380.31;4989933;28;102766;-63
2022/04/09 09:15:48;;;;;;;8.57;4.13;;;;;;;7.97;75.14;98383.16;4990765;28;103421;-69
2022/04/09 09:18:22;;;;;;;9.07;4.13;;;;;;;9.13;73.16;98384.69;4992298;28;103512;-69
2022/04/09 09:20:52;;;;;;;7.20;3.77;;;;;;;9.66;70.62;98378.19;5004009;28;102691;-68
2022/04/09 09:23:24;;;;;;;7.20;3.83;;;;;;;8.61;70.28;98382.28;5007816;28;104011;-63
2022/04/09 09:25:57;;;;;;;9.00;4.60;;;;;;;8.30;70.65;98385.31;4990358;28;104239;-64
2022/04/09 09:28:26;;;;;;;7.40;4.23;;;;;;;9.11;70.56;98384.81;5008257;27;102638;-64
2022/04/09 09:30:56;;;;;;;7.00;4.28;;;;;;;9.44;69.91;98384.19;5008837;28;102761;-64
2022/04/09 09:33:26;;;;;;;6.37;2.80;;;;;;;9.97;69.04;98387.31;4989910;28;103914;-63
2022/04/09 09:36:14;;;;;;;;;;;;;;;10.17;65.95;98384.06;4994556;28;103949;-63
2022/04/09 09:38:43;;;;;;;6.80;3.50;;;;;;;9.61;66.86;98391.72;5007785;28;103274;-64
2022/04/09 09:41:23;;;;;;;6.90;3.60;;;;;;;9.21;66.48;98388.47;5006506;28;102597;-64
2022/04/09 09:44:05;;;;;;;9.50;3.60;;;;;;;9.45;66.58;98396.44;5008832;28;103879;-63
2022/04/09 09:46:34;;;;;;;7.13;3.80;;;;;;;8.95;65.40;98388.66;4993986;28;104887;-64
2022/04/09 09:49:04;;;;;;;6.75;3.45;;;;;;;9.65;64.64;98390.56;4990315;28;104452;-64
2022/04/09 09:51:32;;;;;;;7.13;3.67;;;;;;;9.35;65.72;98395.38;5012806;28;103059;-63
2022/04/09 09:54:08;;;;;;;5.75;3.67;;;;;;;9.57;65.38;98394.69;4987813;28;103156;-64
2022/04/09 09:56:39;;;;;;;8.20;3.13;;;;;;;10.31;62.95;98391.75;5002348;28;104770;-63
2022/04/09 09:59:08;;;;;;;7.60;3.40;;;;;;;10.70;67.65;98396.63;4993187;28;103357;-63
2022/04/09 10:01:38;;;;;;;6.53;3.50;;;;;;;10.94;62.81;98396.53;4998678;28;103025;-63
2022/04/09 10:04:13;;;;;;;5.32;2.97;;;;;;;10.69;63.83;98397.63;5006692;28;102910;-69
2022/04/09 10:06:43;;;;;;;6.32;3.53;;;;;;;10.01;62.90;98396.69;4990413;28;104163;-70
2022/04/09 10:09:13;;;;;;;7.85;3.35;;;;;;;10.65;62.30;98403.25;5003188;28;103249;-64
2022/04/09 10:11:47;;;;;;;7.15;3.45;;;;;;;10.09;62.04;98412.78;5012312;28;103043;-64
2022/04/09 10:14:17;;;;;;;6.70;3.22;;;;;;;10.12;62.50;98415.19;5002284;28;103974;-70
2022/04/09 10:16:46;;;;;;;7.05;3.00;;;;;;;10.20;61.87;98415.50;5009095;28;104373;-70
2022/04/09 10:19:18;;;;;;;6.75;3.63;;;;;;;10.05;62.97;98416.63;4991175;28;103032;-64
2022/04/09 10:21:50;;;;;;;6.63;3.10;;;;;;;9.13;62.08;98424.25;5009619;28;102870;-64
2022/04/09 10:24:23;;;;;;;8.13;4.28;;;;;;;9.00;64.84;98415.53;5003998;28;102721;-64
2022/04/09 10:26:53;;;;;;;6.85;4.55;;;;;;;9.45;63.56;98412.25;5014020;28;104095;-64
2022/04/09 10:29:21;;;;;;;6.53;3.10;;;;;;;10.04;61.01;98417.56;5006592;28;103037;-64
2022/04/09 10:31:52;;;;;;;4.80;2.80;;;;;;;10.84;60.25;98422.81;5009538;28;102889;-64
2022/04/09 10:34:24;;;;;;;5.50;2.60;;;;;;;10.48;59.91;98410.66;4987835;28;103014;-64
2022/04/09 10:37:04;;;;;;;7.55;2.78;;;;;;;10.06;60.91;98411.22;4984909;28;104276;-70
2022/04/09 10:39:46;;;;;;;5.47;2.72;;;;;;;10.59;61.46;98411.63;5010037;27;103253;-65
2022/04/09 10:43:01;;;;;;;6.05;2.70;;;;;;;10.20;61.93;98413.72;5010912;28;102955;-63
2022/04/09 10:45:29;;;;;;;5.45;2.85;;;;;;;9.61;60.50;98412.81;5003444;28;102780;-64
2022/04/09 10:48:10;;;;;;;6.05;3.00;;;;;;;10.01;60.95;98405.44;4987020;28;104266;-63
2022/04/09 10:50:59;;;;;;;6.85;3.00;;;;;;;10.41;60.63;98408.63;5011300;28;103277;-63
2022/04/09 10:53:29;;;;;;;5.70;2.85;;;;;;;10.96;58.55;98405.19;4999519;28;103287;-64
2022/04/09 10:56:20;;;;;;;7.10;3.00;;;;;;;11.12;58.07;98408.28;5009577;28;104405;-64
2022/04/09 10:59:08;;;;;;;6.10;3.08;;;;;;;10.30;58.88;98400.66;5008021;28;103333;-64
2022/04/09 11:01:55;;;;;;;5.67;2.60;;;;;;;10.49;58.66;98400.94;5003074;28;103453;-64
2022/04/09 11:04:40;;;;;;;5.35;2.97;;;;;;;9.14;62.98;98404.84;5012087;28;102583;-65
2022/04/09 11:07:16;;;;;;;8.55;3.00;;;;;;;9.44;58.69;98394.75;5010888;28;102620;-64
2022/04/09 11:09:47;;;;;;;5.60;3.13;;;;;;;10.03;57.45;98405.31;4986693;28;104189;-65
2022/04/09 11:12:18;;;;;;;5.40;2.60;;;;;;;10.36;59.12;98394.88;5005971;28;103188;-70
2022/04/09 11:14:49;;;;;;;4.83;2.83;;;;;;;10.87;55.79;98397.97;4991255;28;103036;-64
2022/04/09 11:17:34;;;;;;;5.30;2.85;;;;;;;10.71;56.98;98403.63;5009460;28;102857;-64
2022/04/09 11:20:06;;;;;;;4.90;2.60;;;;;;;12.15;54.05;98398.06;5016794;28;104134;-70
2022/04/09 11:22:37;;;;;;;6.13;2.70;;;;;;;10.99;53.18;98397.84;5002664;28;103044;-70
2022/04/09 11:25:07;;;;;;;3.90;2.47;;;;;;;10.27;58.35;98401.72;5010322;28;102646;-63
2022/04/09 11:27:35;;;;;;;6.77;2.93;;;;;;;10.17;58.64;98407.81;4988185;28;103958;-63
2022/04/09 11:30:04;;;;;;;5.10;2.90;;;;;;;9.76;59.73;98406.44;5006503;28;103259;-63
2022/04/09 11:32:35;;;;;;;6.13;2.70;;;;;;;9.67;58.46;98407.09;4997011;28;103193;-63
2022/04/09 11:35:08;;;;;;;5.40;2.40;;;;;;;10.24;60.09;98398.47;4994113;28;102682;-63
2022/04/09 11:37:42;;;;;;;4.27;2.60;;;;;;;9.55;61.95;98402.72;5010477;28;102884;-65
2022/04/09 11:40:12;;;;;;;6.03;2.47;;;;;;;10.50;59.14;98399.16;5003067;28;103257;-69
2022/04/09 11:42:44;;;;;;;7.10;2.73;;;;;;;10.78;57.76;98396.88;4988563;28;104468;-69
2022/04/09 11:45:20;;;;;;;5.73;2.50;;;;;;;10.64;57.19;98394.47;5007705;28;102729;-69
2022/04/09 11:47:49;;;;;;;6.67;2.50;;;;;;;10.65;56.17;98396.16;5009916;28;103701;-69
2022/04/09 11:50:17;;;;;;;5.13;2.80;;;;;;;10.59;54.26;98396.63;5000770;27;103293;-70
2022/04/09 11:52:47;;;;;;;4.83;2.90;;;;;;;11.66;53.56;98395.09;5005257;28;103204;-70
2022/04/09 11:55:16;;;;;;;5.43;2.40;;;;;;;11.66;53.01;98400.41;4990998;28;102718;-70
2022/04/09 11:57:52;;;;;;;4.53;2.70;;;;;;;12.02;54.33;98399.22;5009832;28;103791;-70
2022/04/09 12:00:23;;;;;;;5.63;2.72;;;;;;;12.24;51.08;98387.69;5012061;28;103743;-70
2022/04/09 12:02:51;;;;;;;5.22;2.97;;;;;;;12.14;52.56;98387.59;5002278;28;103991;-69
2022/04/09 12:05:22;;;;;;;5.53;2.30;;;;;;;11.80;52.21;98386.91;5005126;28;103104;-70
2022/04/09 12:07:51;;;;;;;6.00;2.65;;;;;;;11.84;51.65;98396.28;5008591;28;104278;-70
2022/04/09 12:10:24;;;;;;;4.80;2.30;;;;;;;11.83;50.96;98389.31;5004259;28;104018;-63
2022/04/09 12:13:00;;;;;;;7.07;2.90;;;;;;;11.74;52.94;98387.41;5007221;28;103208;-63
2022/04/09 12:15:30;;;;;;;6.15;2.60;;;;;;;11.34;52.82;98388.94;5009858;28;102749;-63
2022/04/09 12:17:58;;;;;;;4.28;2.60;;;;;;;11.63;53.04;98390.06;5012235;28;103003;-63
2022/04/09 12:20:30;;;;;;;5.45;2.90;;;;;;;11.63;50.22;98379.47;5003406;28;104374;-63
2022/04/09 12:23:01;;;;;;;4.25;2.47;;;;;;;12.01;51.12;98379.00;4989575;28;104173;-63
2022/04/09 12:25:36;;;;;;;4.57;2.67;;;;;;;12.38;50.29;98382.06;5009815;28;102883;-63
2022/04/09 12:28:05;;;;;;;3.92;2.25;;;;;;;11.82;49.79;98379.66;4998253;28;103867;-63
2022/04/09 12:30:41;;;;;;;4.43;2.20;;;;;;;12.37;51.74;98380.38;5002786;28;103304;-63
2022/04/09 12:33:11;;;;;;;5.38;2.50;;;;;;;12.48;49.92;98382.97;4987159;28;103085;-63